Evendale, Ohio
Current Conditions -  °F | °C
As of 10:53 AM on Sunday 25 Jan 2015 (Local Time) from KHAO Reporting Station
Light Rain Light Rain  
Wind Chill: 34°   Ceiling: 4200
Heat Index: 38°   Visibility: 6mi
Dew Point: 34°   Wind: 5mph
Humidity: 86%   Direction: 110°ESE
Pressure: 29.76"   Gusts: NA
Location:  39.2779°N, 84.4005°W
Report Text: KHAO 251553Z AUTO 11004KT 6SM -RA BR BKN042 OVC055 03/01 A2976 RMK AO2 SLP082 P0002 T00330011
Loading
Personal Weather Stations






























Interactive Weather Map New forecast layout! Learn more

10-Day Weather Forecast

Advertisements
Track Severe Weather on mobile